createdAt,value
2022-11-22T00:03:40.389Z,8.20
2022-11-22T00:09:05.447Z,8.20
2022-11-22T00:14:33.401Z,8.23
2022-11-22T00:19:58.450Z,8.35
2022-11-22T00:25:24.421Z,8.15
2022-11-22T00:30:52.435Z,8.20
2022-11-22T00:36:16.428Z,7.40
2022-11-22T00:41:41.411Z,7.55
2022-11-22T00:47:08.448Z,7.30
2022-11-22T00:52:33.460Z,7.32
2022-11-22T00:57:57.448Z,6.88
2022-11-22T01:03:33.425Z,7.68
2022-11-22T01:08:58.441Z,7.57
2022-11-22T01:14:22.457Z,7.20
2022-11-22T01:19:50.438Z,7.40
2022-11-22T01:25:14.424Z,6.22
2022-11-22T01:30:39.451Z,6.65
2022-11-22T01:36:07.736Z,6.03
2022-11-22T01:41:32.441Z,6.75
2022-11-22T01:46:57.431Z,6.45
2022-11-22T01:52:28.548Z,7.10
2022-11-22T01:57:56.446Z,6.85
2022-11-22T02:03:31.481Z,6.82
2022-11-22T02:09:05.485Z,6.32
2022-11-22T02:14:32.434Z,6.63
2022-11-22T02:19:59.493Z,5.82
2022-11-22T02:25:32.502Z,5.93
2022-11-22T02:31:00.482Z,5.82
2022-11-22T02:36:27.456Z,5.45
2022-11-22T02:41:54.494Z,5.03
2022-11-22T02:47:21.465Z,4.97
2022-11-22T02:52:46.481Z,5.07
2022-11-22T02:58:12.455Z,5.00
2022-11-22T03:03:47.481Z,5.18
2022-11-22T03:09:12.476Z,4.80
2022-11-22T03:14:37.473Z,5.15
2022-11-22T03:20:05.612Z,5.32
2022-11-22T03:25:30.497Z,4.75
2022-11-22T03:30:55.484Z,4.93
2022-11-22T03:36:22.510Z,4.75
2022-11-22T03:41:47.477Z,4.65
2022-11-22T03:47:11.513Z,4.22
2022-11-22T03:52:39.732Z,4.38
2022-11-22T03:58:03.529Z,4.78
2022-11-22T04:03:34.472Z,4.80
2022-11-22T04:09:02.622Z,4.60
2022-11-22T04:14:40.665Z,4.80
2022-11-22T04:20:30.516Z,4.03
2022-11-22T04:25:59.557Z,4.32
2022-11-22T04:31:36.951Z,3.75
2022-11-22T04:37:01.485Z,3.70
2022-11-22T04:42:41.525Z,4.53
2022-11-22T04:48:08.507Z,4.90
2022-11-22T04:53:33.500Z,5.00
2022-11-22T04:59:00.718Z,4.95
2022-11-22T05:04:26.526Z,4.47
2022-11-22T05:09:50.523Z,5.00
2022-11-22T05:15:19.532Z,4.95
2022-11-22T05:20:43.517Z,4.80
2022-11-22T05:26:08.554Z,4.93
2022-11-22T05:31:37.547Z,4.93
2022-11-22T05:37:02.564Z,4.40
2022-11-22T05:42:26.512Z,4.10
2022-11-22T05:47:55.517Z,4.15
2022-11-22T05:53:19.528Z,4.15
2022-11-22T05:58:45.559Z,4.20
2022-11-22T06:04:20.683Z,3.70
2022-11-22T06:09:45.542Z,3.40
2022-11-22T06:15:09.522Z,3.75
2022-11-22T06:20:37.554Z,3.20
2022-11-22T06:26:01.570Z,3.30
2022-11-22T06:31:28.603Z,3.40
2022-11-22T06:36:55.549Z,3.40
2022-11-22T06:42:20.597Z,3.50
2022-11-22T06:47:45.527Z,3.60
2022-11-22T06:53:32.417Z,3.65
2022-11-22T06:58:59.543Z,3.22
2022-11-22T07:04:30.592Z,3.00
2022-11-22T07:09:59.164Z,2.90
2022-11-22T07:15:23.591Z,3.00
2022-11-22T07:20:48.590Z,2.92
2022-11-22T07:26:17.600Z,3.10
2022-11-22T07:31:42.556Z,2.58
2022-11-22T07:37:09.235Z,2.47
2022-11-22T07:42:37.594Z,2.30
2022-11-22T07:48:01.607Z,2.33
2022-11-22T07:53:27.200Z,2.17
2022-11-22T07:58:53.606Z,1.95
2022-11-22T08:04:24.586Z,1.90
2022-11-22T08:09:49.585Z,1.70
2022-11-22T08:15:17.614Z,1.95
2022-11-22T08:20:42.621Z,1.95
2022-11-22T08:26:07.619Z,2.05
2022-11-22T08:31:36.587Z,1.90
2022-11-22T08:37:00.593Z,1.95
2022-11-22T08:42:25.615Z,1.90
2022-11-22T08:47:52.630Z,1.95
2022-11-22T08:53:17.629Z,2.13
2022-11-22T08:58:42.708Z,2.20
2022-11-22T09:04:17.638Z,2.10
2022-11-22T09:09:42.600Z,1.90
2022-11-22T09:15:06.620Z,1.90
2022-11-22T09:20:40.640Z,1.90
2022-11-22T09:26:09.636Z,2.00
2022-11-22T09:31:35.625Z,2.05
2022-11-22T09:37:03.601Z,1.90
2022-11-22T09:42:50.621Z,1.90
2022-11-22T09:48:29.635Z,1.75
2022-11-22T09:54:02.069Z,2.03
2022-11-22T09:59:32.818Z,2.30
2022-11-22T10:05:09.683Z,1.93
2022-11-22T10:10:43.675Z,1.80
2022-11-22T10:16:22.609Z,2.10
2022-11-22T10:21:48.662Z,1.65
2022-11-22T10:27:16.629Z,1.83
2022-11-22T10:32:48.657Z,1.90
2022-11-22T10:38:39.667Z,1.80
2022-11-22T10:44:19.764Z,2.00
2022-11-22T10:49:58.675Z,2.10
2022-11-22T10:55:35.748Z,1.77
2022-11-22T11:01:07.650Z,1.77
2022-11-22T11:12:31.655Z,1.98
2022-11-22T11:18:05.677Z,2.40
2022-11-22T11:23:30.720Z,3.35
2022-11-22T11:28:55.692Z,2.22
2022-11-22T11:34:36.686Z,2.55
2022-11-22T11:40:01.690Z,2.13
2022-11-22T11:45:42.684Z,1.77
2022-11-22T11:51:25.686Z,1.60
2022-11-22T11:56:59.669Z,1.83
2022-11-22T12:02:26.746Z,2.00
2022-11-22T12:07:58.828Z,1.98
2022-11-22T12:13:31.666Z,2.10
2022-11-22T12:19:04.705Z,1.70
2022-11-22T12:30:27.781Z,1.90
2022-11-22T12:35:53.695Z,1.65
2022-11-22T12:41:25.716Z,1.50
2022-11-22T12:46:55.720Z,1.50
2022-11-22T12:48:23.304Z,1.85
2022-11-22T12:52:28.802Z,1.63
2022-11-22T12:58:03.094Z,1.33
2022-11-22T13:03:42.690Z,1.30
2022-11-22T13:09:11.763Z,1.40
2022-11-22T13:14:46.711Z,1.20
2022-11-22T13:20:16.721Z,1.48
2022-11-22T13:25:59.729Z,1.80
2022-11-22T13:31:29.733Z,1.60
2022-11-22T13:37:01.662Z,1.65
2022-11-22T13:42:29.746Z,1.52
2022-11-22T13:48:00.748Z,1.42
2022-11-22T13:53:32.720Z,1.70
2022-11-22T13:59:06.863Z,1.70
2022-11-22T14:04:58.771Z,1.70
2022-11-22T14:16:29.797Z,1.60
2022-11-22T14:27:41.770Z,1.80
2022-11-22T14:33:12.764Z,1.63
2022-11-22T14:38:47.768Z,1.60
2022-11-22T14:44:17.863Z,1.70
2022-11-22T14:49:55.775Z,1.55
2022-11-22T14:55:26.746Z,1.83
2022-11-22T15:01:11.764Z,1.60
2022-11-22T15:09:23.874Z,1.73
2022-11-22T15:12:54.829Z,1.80
2022-11-22T16:00:01.798Z,3.40
2022-11-22T16:06:08.612Z,4.60
2022-11-22T16:11:36.868Z,5.00
2022-11-22T16:17:00.802Z,5.45
2022-11-22T16:22:39.848Z,5.97
2022-11-22T16:28:04.804Z,6.05
2022-11-22T16:33:29.799Z,7.00
2022-11-22T16:38:56.965Z,7.43
2022-11-22T16:44:23.817Z,7.45
2022-11-22T16:49:47.924Z,7.82
2022-11-22T16:55:16.860Z,6.72
2022-11-22T17:00:41.909Z,6.90
2022-11-22T17:06:06.813Z,7.88
2022-11-22T17:11:35.811Z,7.28
2022-11-22T17:17:00.873Z,7.72
2022-11-22T17:22:24.839Z,6.90
2022-11-22T17:27:54.180Z,7.85
2022-11-22T17:33:18.878Z,7.40
2022-11-22T17:38:43.816Z,6.88
2022-11-22T17:44:10.822Z,7.22
2022-11-22T17:49:36.063Z,8.10
2022-11-22T17:55:05.078Z,9.45
2022-11-22T18:00:33.865Z,9.43
2022-11-22T18:06:06.022Z,8.20
2022-11-22T18:11:30.877Z,8.55
2022-11-22T18:16:57.833Z,6.97
2022-11-22T18:22:22.858Z,6.72
2022-11-22T18:27:48.835Z,6.65
2022-11-22T18:33:16.945Z,7.97
2022-11-22T18:38:40.855Z,6.20
2022-11-22T18:44:08.787Z,5.80
2022-11-22T18:49:43.867Z,5.63
2022-11-22T18:55:08.841Z,5.30
2022-11-22T19:00:34.849Z,5.20
2022-11-22T19:06:08.860Z,5.03
2022-11-22T19:11:33.872Z,4.70
2022-11-22T19:16:57.936Z,4.55
2022-11-22T19:22:25.885Z,4.25
2022-11-22T19:27:50.920Z,4.30
2022-11-22T19:33:15.866Z,4.88
2022-11-22T19:38:43.884Z,3.80
2022-11-22T19:44:08.975Z,4.30
2022-11-22T19:49:33.034Z,3.65
2022-11-22T19:55:00.905Z,4.28
2022-11-22T20:00:26.899Z,5.03
2022-11-22T20:05:57.903Z,4.80
2022-11-22T20:11:27.931Z,4.73
2022-11-22T20:16:53.966Z,4.82
2022-11-22T20:22:18.932Z,4.75
2022-11-22T20:27:45.926Z,4.60
2022-11-22T20:33:11.931Z,4.78
2022-11-22T20:38:35.981Z,4.82
2022-11-22T20:44:04.039Z,3.95
2022-11-22T20:49:31.958Z,3.97
2022-11-22T20:55:01.713Z,3.90
2022-11-22T21:00:32.904Z,4.45
2022-11-22T21:06:07.956Z,4.03
2022-11-22T21:11:34.959Z,4.20
2022-11-22T21:17:22.723Z,4.20
2022-11-22T21:22:46.951Z,4.05
2022-11-22T21:28:05.993Z,3.78
2022-11-22T21:33:32.931Z,4.22
2022-11-22T21:38:57.956Z,3.65
2022-11-22T21:44:22.903Z,3.63
2022-11-22T21:49:50.951Z,3.83
2022-11-22T21:55:15.933Z,3.67
2022-11-22T22:00:40.994Z,3.92
2022-11-22T22:06:15.981Z,3.60
2022-11-22T22:11:40.920Z,3.70
2022-11-22T22:17:04.929Z,3.72
2022-11-22T22:22:32.962Z,4.20
2022-11-22T22:27:57.970Z,3.58
2022-11-22T22:33:23.050Z,3.55
2022-11-22T22:38:49.975Z,3.53
2022-11-22T22:44:14.938Z,3.47
2022-11-22T22:49:38.982Z,3.35
2022-11-22T22:55:06.953Z,3.53
2022-11-22T23:00:32.967Z,3.47
2022-11-22T23:06:03.985Z,2.97
2022-11-22T23:11:52.088Z,2.90
2022-11-22T23:17:15.973Z,3.17
2022-11-22T23:22:40.970Z,2.97
2022-11-22T23:28:08.947Z,3.17
2022-11-22T23:33:34.961Z,3.20
2022-11-22T23:38:59.992Z,3.40
2022-11-22T23:44:27.973Z,3.00
2022-11-22T23:49:51.958Z,3.10
2022-11-22T23:55:17.989Z,3.15
